East Gillespie, Illinois
Current Conditions -  °F | °C
As of 1:55 AM on Tuesday 21 Oct 2014 (Local Time) from K3LF Reporting Station
Clear Clear  
Wind Chill: 48°   Ceiling: Unl
Heat Index: 48°   Visibility: 10mi
Dew Point: 42°   Wind: 3mph
Humidity: 78%   Direction: 290°WNW
Pressure: 30.01"   Gusts: NA
Location:  39.1304°N, 89.8405°W
Report Text: K3LF 210655Z AUTO 29003KT 10SM CLR 09/05 A3001 RMK AO2 T00890053
Loading
Personal Weather Stations






























Interactive Weather Map
Tropical Storm Tracking
New forecast layout! Learn more

10-Day Weather Forecast

Advertisements
Track Severe Weather on mobile